Felix-Klein-Gymnasium, Gttingen, 150m NN
Donnes mto: Actuelle Montag, 16.09.2019 06:15
Date Horaire Temp. E. Hum. E. P.atmo. Pluie Vent Direction Direction Ensoleilleme P. de rose Temp au vent Rafales
16.09.2019 06:15 14,2 C 86 % 1017,9 hPa 0,0 mm 0,0 km/h (0 Bft) S-SE 157 0 min 11,9 C 14,2 C 0,0 km/h (0 Bft)
16.09.2019 06:00 14,2 C 85 % 1017,6 hPa 0,0 mm 0,0 km/h (0 Bft) S-SE 157 0 min 11,7 C 14,2 C 0,0 km/h (0 Bft)
16.09.2019 05:45 14,3 C 85 % 1017,9 hPa 0,0 mm 0,0 km/h (0 Bft) S-SE 157 0 min 11,8 C 14,3 C 0,0 km/h (0 Bft)
16.09.2019 05:30 14,3 C 85 % 1018,1 hPa 0,0 mm 0,0 km/h (0 Bft) S-SE 157 0 min 11,8 C 14,3 C 0,0 km/h (0 Bft)
16.09.2019 05:15 14,3 C 85 % 1018,2 hPa 0,0 mm 0,0 km/h (0 Bft) S-SE 157 0 min 11,8 C 14,3 C 0,0 km/h (0 Bft)
16.09.2019 05:00 14,3 C 85 % 1018,4 hPa 0,0 mm 0,1 km/h (0 Bft) S-SE 164 0 min 11,8 C 14,3 C 4,8 km/h (1 Bft)
16.09.2019 04:45 14,3 C 86 % 1018,2 hPa 0,0 mm 0,0 km/h (0 Bft) S 187 0 min 12,0 C 14,3 C 0,0 km/h (0 Bft)
16.09.2019 04:30 14,2 C 86 % 1018,1 hPa 0,0 mm 0,0 km/h (0 Bft) S-SO 193 0 min 11,9 C 14,2 C 0,0 km/h (0 Bft)
16.09.2019 04:15 14,1 C 87 % 1018,4 hPa 0,0 mm 0,5 km/h (0 Bft) SE 142 0 min 12,0 C 14,1 C 8,0 km/h (2 Bft)
16.09.2019 04:00 14,1 C 88 % 1018,2 hPa 0,0 mm 0,0 km/h (0 Bft) S-SO 198 0 min 12,1 C 14,1 C 3,2 km/h (1 Bft)
16.09.2019 03:45 14,0 C 89 % 1018,5 hPa 0,0 mm 0,2 km/h (0 Bft) S-SO 194 0 min 12,2 C 14,0 C 4,8 km/h (1 Bft)
16.09.2019 03:30 13,8 C 90 % 1018,5 hPa 0,0 mm 2,5 km/h (1 Bft) S 169 0 min 12,2 C 13,8 C 12,9 km/h (3 Bft)
16.09.2019 03:15 13,8 C 90 % 1018,5 hPa 0,0 mm 7,6 km/h (2 Bft) S 187 0 min 12,2 C 13,8 C 20,9 km/h (4 Bft)
16.09.2019 03:00 14,3 C 90 % 1018,6 hPa 0,0 mm 9,4 km/h (2 Bft) SE 144 0 min 12,7 C 14,3 C 24,1 km/h (4 Bft)
16.09.2019 02:45 14,9 C 89 % 1018,7 hPa 0,0 mm 11,7 km/h (2 Bft) SE 136 0 min 13,1 C 14,9 C 27,4 km/h (4 Bft)
16.09.2019 02:30 16,1 C 85 % 1018,6 hPa 0,0 mm 9,0 km/h (2 Bft) SE 145 0 min 13,6 C 16,1 C 25,7 km/h (4 Bft)
16.09.2019 02:15 16,4 C 82 % 1018,4 hPa 0,0 mm 10,3 km/h (2 Bft) E-SE 105 0 min 13,3 C 16,4 C 25,7 km/h (4 Bft)
16.09.2019 02:00 16,8 C 80 % 1018,3 hPa 0,0 mm 10,5 km/h (2 Bft) E-SE 115 0 min 13,3 C 16,8 C 25,7 km/h (4 Bft)
16.09.2019 01:45 16,9 C 79 % 1018,3 hPa 0,0 mm 11,2 km/h (2 Bft) E-SE 113 0 min 13,2 C 16,9 C 29,0 km/h (5 Bft)
16.09.2019 01:30 16,9 C 81 % 1018,4 hPa 0,0 mm 0,1 km/h (0 Bft) E-SE 104 0 min 13,6 C 16,9 C 6,4 km/h (2 Bft)
16.09.2019 01:15 17,1 C 80 % 1018,3 hPa 0,0 mm 0,0 km/h (0 Bft) E-SE 117 0 min 13,6 C 17,1 C 0,0 km/h (0 Bft)
16.09.2019 01:00 17,2 C 79 % 1018,2 hPa 0,0 mm 1,8 km/h (1 Bft) SE 144 0 min 13,5 C 17,2 C 8,0 km/h (2 Bft)
16.09.2019 00:45 17,3 C 75 % 1018,3 hPa 0,0 mm 3,7 km/h (1 Bft) SE 128 0 min 12,8 C 17,3 C 9,7 km/h (2 Bft)
16.09.2019 00:30 17,6 C 70 % 1018,2 hPa 0,0 mm 4,2 km/h (1 Bft) SE 126 0 min 12,1 C 17,6 C 12,9 km/h (3 Bft)
16.09.2019 00:15 17,8 C 59 % 1018,4 hPa 0,0 mm 6,6 km/h (2 Bft) SE 128 0 min 9,7 C 17,8 C 14,5 km/h (3 Bft)
16.09.2019 00:00 17,8 C 53 % 1018,3 hPa 0,0 mm 5,4 km/h (1 Bft) E-SE 121 0 min 8,1 C 17,8 C 6,4 km/h (2 Bft)
15.09.2019 22:45 18,7 C 45 % 1018,1 hPa 0,0 mm 0,3 km/h (0 Bft) E-NE 57 0 min 6,5 C 18,7 C 4,8 km/h (1 Bft)
15.09.2019 22:30 18,9 C 44 % 1018,2 hPa 0,0 mm 0,8 km/h (0 Bft) E-NE 67 0 min 6,4 C 18,9 C 6,4 km/h (2 Bft)
15.09.2019 22:15 19,2 C 43 % 1018,1 hPa 0,0 mm 0,0 km/h (0 Bft) E-NE 58 0 min 6,3 C 19,2 C 1,6 km/h (1 Bft)
15.09.2019 22:00 19,3 C 42 % 1018,0 hPa 0,0 mm 0,0 km/h (0 Bft) E-NE 57 0 min 6,1 C 19,3 C 0,0 km/h (0 Bft)
15.09.2019 21:45 19,5 C 41 % 1018,0 hPa 0,0 mm 0,0 km/h (0 Bft) E-NE 57 0 min 5,9 C 19,5 C 1,6 km/h (1 Bft)
15.09.2019 21:30 19,7 C 40 % 1018,1 hPa 0,0 mm 0,2 km/h (0 Bft) E-NE 57 0 min 5,7 C 19,7 C 4,8 km/h (1 Bft)
15.09.2019 21:15 19,9 C 39 % 1018,0 hPa 0,0 mm 0,8 km/h (0 Bft) NE 47 0 min 5,5 C 19,9 C 8,0 km/h (2 Bft)
15.09.2019 21:00 20,1 C 38 % 1017,9 hPa 0,0 mm 0,3 km/h (0 Bft) E-NE 58 0 min 5,3 C 20,1 C 6,4 km/h (2 Bft)
15.09.2019 20:45 20,1 C 38 % 1018,0 hPa 0,0 mm 0,2 km/h (0 Bft) E 93 0 min 5,3 C 20,1 C 4,8 km/h (1 Bft)
15.09.2019 20:30 20,2 C 36 % 1018,1 hPa 0,0 mm 0,4 km/h (0 Bft) E-SE 109 0 min 4,7 C 20,2 C 8,0 km/h (2 Bft)
15.09.2019 20:15 20,5 C 35 % 1018,1 hPa 0,0 mm 2,3 km/h (1 Bft) E-SE 111 0 min 4,5 C 20,5 C 11,3 km/h (2 Bft)
15.09.2019 20:00 20,9 C 33 % 1018,0 hPa 0,0 mm 3,3 km/h (1 Bft) E 98 0 min 4,0 C 20,9 C 14,5 km/h (3 Bft)
15.09.2019 19:45 21,3 C 32 % 1017,8 hPa 0,0 mm 5,9 km/h (2 Bft) E 96 0 min 3,9 C 21,3 C 19,3 km/h (3 Bft)
15.09.2019 19:30 21,8 C 31 % 1017,7 hPa 0,0 mm 5,6 km/h (1 Bft) E-SE 108 0 min 3,9 C 21,8 C 20,9 km/h (4 Bft)
15.09.2019 19:15 22,3 C 29 % 1017,6 hPa 0,0 mm 4,9 km/h (1 Bft) E-SE 107 0 min 3,4 C 22,3 C 17,7 km/h (3 Bft)
15.09.2019 19:00 22,8 C 26 % 1017,4 hPa 0,0 mm 4,8 km/h (1 Bft) E-SE 123 0 min 2,3 C 22,8 C 16,1 km/h (3 Bft)
15.09.2019 18:45 23,2 C 25 % 1017,3 hPa 0,0 mm 6,5 km/h (2 Bft) E 91 0 min 2,1 C 23,2 C 19,3 km/h (3 Bft)
15.09.2019 18:30 23,6 C 24 % 1017,4 hPa 0,0 mm 6,3 km/h (2 Bft) E 96 0 min 1,8 C 23,6 C 22,5 km/h (4 Bft)
15.09.2019 18:15 23,9 C 24 % 1017,4 hPa 0,0 mm 9,6 km/h (2 Bft) E 91 15 min 2,1 C 23,9 C 24,1 km/h (4 Bft)
15.09.2019 18:00 24,0 C 23 % 1017,4 hPa 0,0 mm 11,2 km/h (2 Bft) E-SE 108 15 min 1,6 C 24,0 C 25,7 km/h (4 Bft)
15.09.2019 17:45 24,1 C 23 % 1017,6 hPa 0,0 mm 10,1 km/h (2 Bft) E 79 15 min 1,7 C 24,1 C 22,5 km/h (4 Bft)
15.09.2019 17:30 24,1 C 25 % 1017,6 hPa 0,0 mm 15,5 km/h (3 Bft) E 80 15 min 2,8 C 24,1 C 32,2 km/h (5 Bft)
15.09.2019 17:15 24,2 C 24 % 1017,7 hPa 0,0 mm 13,4 km/h (3 Bft) E 81 15 min 2,4 C 24,2 C 32,2 km/h (5 Bft)
15.09.2019 17:00 24,5 C 24 % 1017,8 hPa 0,0 mm 5,2 km/h (1 Bft) E-NE 69 15 min 2,6 C 24,5 C 19,3 km/h (3 Bft)
15.09.2019 16:45 24,3 C 23 % 1017,9 hPa 0,0 mm 4,4 km/h (1 Bft) E 89 15 min 1,8 C 24,3 C 17,7 km/h (3 Bft)
15.09.2019 16:30 23,8 C 23 % 1018,1 hPa 0,0 mm 10,0 km/h (2 Bft) E-NE 59 15 min 1,4 C 23,8 C 29,0 km/h (5 Bft)
15.09.2019 16:15 23,9 C 25 % 1018,1 hPa 0,0 mm 8,0 km/h (2 Bft) NE 56 15 min 2,7 C 23,9 C 32,2 km/h (5 Bft)
15.09.2019 16:00 23,8 C 23 % 1018,2 hPa 0,0 mm 10,3 km/h (2 Bft) E-NE 63 0 min 1,4 C 23,8 C 37,0 km/h (5 Bft)
15.09.2019 15:45 23,8 C 24 % 1018,6 hPa 0,0 mm 9,9 km/h (2 Bft) E-NE 67 15 min 2,0 C 23,8 C 33,8 km/h (5 Bft)
15.09.2019 15:30 23,8 C 24 % 1018,8 hPa 0,0 mm 10,2 km/h (2 Bft) E-NE 78 15 min 2,0 C 23,8 C 29,0 km/h (5 Bft)
15.09.2019 15:15 24,1 C 23 % 1018,9 hPa 0,0 mm 12,0 km/h (2 Bft) NE 40 15 min 1,7 C 24,1 C 35,4 km/h (5 Bft)
15.09.2019 15:00 23,9 C 28 % 1018,9 hPa 0,0 mm 9,8 km/h (2 Bft) E 84 15 min 4,3 C 23,9 C 27,4 km/h (4 Bft)
15.09.2019 14:45 23,9 C 34 % 1019,1 hPa 0,0 mm 1,8 km/h (1 Bft) E-NE 67 15 min 7,1 C 23,9 C 16,1 km/h (3 Bft)
15.09.2019 14:30 22,9 C 35 % 1019,4 hPa 0,0 mm 7,6 km/h (2 Bft) N-NO 336 15 min 6,6 C 22,9 C 24,1 km/h (4 Bft)
15.09.2019 14:15 22,3 C 36 % 1019,6 hPa 0,0 mm 10,1 km/h (2 Bft) E 98 0 min 6,5 C 22,3 C 25,7 km/h (4 Bft)
15.09.2019 14:00 22,1 C 36 % 1019,8 hPa 0,0 mm 11,6 km/h (2 Bft) N-NE 26 15 min 6,3 C 22,1 C 32,2 km/h (5 Bft)
15.09.2019 13:45 22,1 C 39 % 1019,9 hPa 0,0 mm 7,5 km/h (2 Bft) E-NE 65 15 min 7,5 C 22,1 C 29,0 km/h (5 Bft)
15.09.2019 13:30 21,8 C 40 % 1020,0 hPa 0,0 mm 14,4 km/h (3 Bft) E-NE 65 15 min 7,6 C 21,8 C 30,6 km/h (5 Bft)
15.09.2019 13:15 21,6 C 42 % 1020,1 hPa 0,0 mm 11,1 km/h (2 Bft) E 96 15 min 8,1 C 21,6 C 29,0 km/h (5 Bft)
15.09.2019 13:00 21,4 C 43 % 1020,2 hPa 0,0 mm 4,6 km/h (1 Bft) E 88 15 min 8,3 C 21,4 C 16,1 km/h (3 Bft)
15.09.2019 12:45 21,3 C 44 % 1020,2 hPa 0,0 mm 6,9 km/h (2 Bft) NE 49 15 min 8,5 C 21,3 C 20,9 km/h (4 Bft)
15.09.2019 12:30 21,6 C 44 % 1020,2 hPa 0,0 mm 4,8 km/h (1 Bft) N-NE 27 15 min 8,8 C 21,6 C 20,9 km/h (4 Bft)
15.09.2019 12:15 20,8 C 45 % 1020,5 hPa 0,0 mm 10,7 km/h (2 Bft) E-NE 63 15 min 8,4 C 20,8 C 22,5 km/h (4 Bft)
15.09.2019 12:00 20,8 C 49 % 1020,4 hPa 0,0 mm 6,1 km/h (2 Bft) N 11 15 min 9,7 C 20,8 C 17,7 km/h (3 Bft)
15.09.2019 11:45 20,6 C 49 % 1020,4 hPa 0,0 mm 5,2 km/h (1 Bft) N-NE 26 15 min 9,5 C 20,6 C 19,3 km/h (3 Bft)
15.09.2019 11:30 20,4 C 50 % 1020,6 hPa 0,0 mm 3,6 km/h (1 Bft) N-NE 24 15 min 9,6 C 20,4 C 14,5 km/h (3 Bft)
15.09.2019 11:15 19,8 C 50 % 1020,7 hPa 0,0 mm 4,7 km/h (1 Bft) E 91 15 min 9,1 C 19,8 C 16,1 km/h (3 Bft)
15.09.2019 11:00 19,7 C 53 % 1020,8 hPa 0,0 mm 1,4 km/h (1 Bft) NE 48 15 min 9,8 C 19,7 C 9,7 km/h (2 Bft)
15.09.2019 10:45 19,4 C 55 % 1021,0 hPa 0,0 mm 0,4 km/h (0 Bft) N-NO 336 15 min 10,1 C 19,4 C 6,4 km/h (2 Bft)
15.09.2019 10:30 18,8 C 59 % 1021,2 hPa 0,0 mm 1,0 km/h (0 Bft) NO 310 15 min 10,6 C 18,8 C 9,7 km/h (2 Bft)
15.09.2019 10:15 18,0 C 62 % 1021,3 hPa 0,0 mm 0,9 km/h (0 Bft) NO 310 15 min 10,6 C 18,0 C 6,4 km/h (2 Bft)
15.09.2019 10:00 16,8 C 66 % 1021,4 hPa 0,0 mm 1,4 km/h (1 Bft) NO 313 15 min 10,4 C 16,8 C 6,4 km/h (2 Bft)
15.09.2019 09:45 15,4 C 70 % 1021,8 hPa 0,0 mm 1,5 km/h (1 Bft) N-NO 332 15 min 10,0 C 15,4 C 6,4 km/h (2 Bft)
15.09.2019 09:30 13,9 C 75 % 1021,8 hPa 0,0 mm 0,9 km/h (0 Bft) NO 314 15 min 9,5 C 13,9 C 6,4 km/h (2 Bft)
15.09.2019 09:15 12,0 C 82 % 1022,0 hPa 0,0 mm 3,3 km/h (1 Bft) NO 317 15 min 9,0 C 12,0 C 9,7 km/h (2 Bft)
15.09.2019 09:00 10,2 C 84 % 1021,8 hPa 0,0 mm 4,8 km/h (1 Bft) NO 313 15 min 7,6 C 10,2 C 11,3 km/h (2 Bft)
15.09.2019 08:45 9,1 C 86 % 1021,9 hPa 0,0 mm 0,6 km/h (0 Bft) O-NO 295 15 min 6,9 C 9,1 C 6,4 km/h (2 Bft)
15.09.2019 08:30 7,9 C 89 % 1022,3 hPa 0,0 mm 0,0 km/h (0 Bft) N-NO 332 15 min 6,2 C 7,9 C 3,2 km/h (1 Bft)
15.09.2019 08:15 7,2 C 91 % 1022,3 hPa 0,0 mm 0,0 km/h (0 Bft) N-NO 335 15 min 5,8 C 7,2 C 0,0 km/h (0 Bft)
15.09.2019 08:00 6,7 C 92 % 1022,2 hPa 0,0 mm 0,0 km/h (0 Bft) N-NO 337 0 min 5,5 C 6,7 C 1,6 km/h (1 Bft)
15.09.2019 07:45 6,4 C 91 % 1022,3 hPa 0,0 mm 0,0 km/h (0 Bft) N-NO 342 0 min 5,0 C 6,4 C 0,0 km/h (0 Bft)
15.09.2019 07:30 6,3 C 91 % 1022,2 hPa 0,0 mm 0,0 km/h (0 Bft) S 175 0 min 4,9 C 6,3 C 0,0 km/h (0 Bft)
15.09.2019 07:15 6,3 C 91 % 1022,3 hPa 0,0 mm 0,0 km/h (0 Bft) S 175 0 min 4,9 C 6,3 C 0,0 km/h (0 Bft)
15.09.2019 07:00 6,3 C 91 % 1022,4 hPa 0,0 mm 0,0 km/h (0 Bft) S 175 0 min 4,9 C 6,3 C 0,0 km/h (0 Bft)
_ Min-Heure 07:00 15:15 18:45 - 07:00 - - - 16:00 07:00 07:00
Minimum _ 6,3 C 23 % 1017,3 hPa - 0,0 km/h (0 Bft) - - - 1,4 C 6,3 C 0,0 km/h (0 Bft)
_ Max-Heure 17:00 08:00 07:00 07:00 17:30 - - 08:15 01:15 17:00 16:00
Maximum _ 24,5 C 92 % 1022,4 hPa 0,0 mm 15,5 km/h
E (3 Bft)
- - 15 min 13,6 C 24,5 C 37,0 km/h
E-NE (5 Bft)
Moyenne _ 17,3 C 59 % 1019,3 hPa #0,0 mm 4,2 km/h (1 Bft) E - #0 min. 7,5 C 17,3 C 12,9 km/h (3 Bft)